createdAt,value
2019-05-11T00:00:38.276Z,101469.42
2019-05-11T00:03:46.878Z,101460.69
2019-05-11T00:06:55.499Z,101469.76
2019-05-11T00:10:05.659Z,101465.05
2019-05-11T00:13:14.181Z,101461.01
2019-05-11T00:16:32.995Z,101459.40
2019-05-11T00:19:41.677Z,101456.66
2019-05-11T00:22:50.299Z,101456.12
2019-05-11T00:25:58.930Z,101451.09
2019-05-11T00:29:07.665Z,101461.84
2019-05-11T00:32:16.277Z,101457.58
2019-05-11T00:35:25.988Z,101451.03
2019-05-11T00:38:34.713Z,101452.98
2019-05-11T00:41:43.485Z,101450.99
2019-05-11T00:44:52.109Z,101444.96
2019-05-11T00:48:00.798Z,101447.00
2019-05-11T00:51:08.933Z,101448.50
2019-05-11T00:54:17.608Z,101447.66
2019-05-11T00:57:26.257Z,101442.73
2019-05-11T01:00:45.133Z,101447.66
2019-05-11T01:03:54.017Z,101438.79
2019-05-11T01:07:03.899Z,101436.66
2019-05-11T01:10:23.592Z,101436.01
2019-05-11T01:13:23.508Z,101436.01
2019-05-11T01:16:32.180Z,101432.91
2019-05-11T01:19:41.391Z,101432.41
2019-05-11T01:23:00.527Z,101425.42
2019-05-11T01:26:09.217Z,101427.06
2019-05-11T01:29:17.933Z,101428.43
2019-05-11T01:32:26.516Z,101428.83
2019-05-11T01:35:35.120Z,101428.52
2019-05-11T01:38:43.856Z,101425.84
2019-05-11T01:41:52.463Z,101435.75
2019-05-11T01:45:01.074Z,101437.38
2019-05-11T01:48:09.911Z,101440.45
2019-05-11T01:51:18.542Z,101443.62
2019-05-11T01:54:27.427Z,101434.46
2019-05-11T01:57:36.115Z,101421.05
2019-05-11T02:00:44.923Z,101433.81
2019-05-11T02:04:03.777Z,101429.22
2019-05-11T02:07:12.767Z,101431.28
2019-05-11T02:10:21.137Z,101425.91
2019-05-11T02:13:29.750Z,101422.09
2019-05-11T02:16:38.385Z,101424.64
2019-05-11T02:19:47.129Z,101421.16
2019-05-11T02:22:56.845Z,101419.47
2019-05-11T02:26:15.928Z,101418.17
2019-05-11T02:29:35.142Z,101427.75
2019-05-11T02:32:43.767Z,101425.56
2019-05-11T02:35:52.391Z,101437.48
2019-05-11T02:39:01.078Z,101436.16
2019-05-11T02:42:10.222Z,101440.03
2019-05-11T02:45:40.232Z,101442.63
2019-05-11T02:48:59.214Z,101431.25
2019-05-11T02:52:08.160Z,101430.16
2019-05-11T02:55:20.321Z,101449.73
2019-05-11T02:58:27.661Z,101445.75
2019-05-11T03:01:46.525Z,101444.48
2019-05-11T03:04:55.122Z,101452.33
2019-05-11T03:08:03.918Z,101443.78
2019-05-11T03:11:12.533Z,101446.40
2019-05-11T03:14:21.113Z,101452.75
2019-05-11T03:17:32.994Z,101442.58
2019-05-11T03:20:41.600Z,101441.41
2019-05-11T03:24:01.420Z,101442.52
2019-05-11T03:27:09.940Z,101443.34
2019-05-11T03:30:20.029Z,101444.86
2019-05-11T03:33:29.029Z,101441.08
2019-05-11T03:36:37.648Z,101443.56
2019-05-11T03:39:46.294Z,101454.04
2019-05-11T03:43:05.128Z,101452.92
2019-05-11T03:46:13.896Z,101453.25
2019-05-11T03:49:22.680Z,101459.14
2019-05-11T03:52:31.372Z,101466.05
2019-05-11T03:55:39.965Z,101471.42
2019-05-11T03:58:48.675Z,101467.39
2019-05-11T04:01:57.316Z,101470.38
2019-05-11T04:05:06.430Z,101477.28
2019-05-11T04:08:15.068Z,101479.06
2019-05-11T04:11:23.655Z,101487.77
2019-05-11T04:14:32.277Z,101486.91
2019-05-11T04:17:41.017Z,101492.28
2019-05-11T04:20:49.523Z,101497.57
2019-05-11T04:24:08.442Z,101500.54
2019-05-11T04:27:19.602Z,101496.66
2019-05-11T04:30:27.475Z,101496.86
2019-05-11T04:33:36.175Z,101499.07
2019-05-11T04:36:44.793Z,101493.75
2019-05-11T04:39:53.480Z,101492.92
2019-05-11T04:43:02.170Z,101492.83
2019-05-11T04:46:11.060Z,101486.11
2019-05-11T04:49:19.348Z,101487.16
2019-05-11T04:52:38.119Z,101481.66
2019-05-11T04:55:46.699Z,101483.52
2019-05-11T04:58:55.337Z,101485.08
2019-05-11T05:02:03.887Z,101492.55
2019-05-11T05:05:12.590Z,101495.66
2019-05-11T05:08:26.313Z,101490.31
2019-05-11T05:11:38.382Z,101496.59
2019-05-11T05:14:50.021Z,101502.82
2019-05-11T05:18:11.604Z,101499.05
2019-05-11T05:21:20.181Z,101494.55
2019-05-11T05:24:31.562Z,101501.66
2019-05-11T05:27:53.373Z,101511.64
2019-05-11T05:31:04.064Z,101514.18
2019-05-11T05:34:12.756Z,101513.98
2019-05-11T05:37:21.278Z,101519.33
2019-05-11T05:40:29.899Z,101515.56
2019-05-11T05:43:38.484Z,101521.87
2019-05-11T05:46:47.072Z,101516.14
2019-05-11T05:50:06.721Z,101521.19
2019-05-11T05:53:15.215Z,101529.84
2019-05-11T05:56:33.897Z,101527.25
2019-05-11T05:59:42.985Z,101533.09
2019-05-11T06:02:51.602Z,101538.57
2019-05-11T06:06:00.331Z,101546.38
2019-05-11T06:09:09.106Z,101543.55
2019-05-11T06:12:17.683Z,101542.39
2019-05-11T06:15:26.215Z,101540.94
2019-05-11T06:18:34.845Z,101553.36
2019-05-11T06:21:43.394Z,101547.01
2019-05-11T06:24:53.291Z,101553.77
2019-05-11T06:28:01.967Z,101557.19
2019-05-11T06:31:10.651Z,101553.08
2019-05-11T06:34:19.321Z,101556.05
2019-05-11T06:37:27.973Z,101553.11
2019-05-11T06:40:36.486Z,101560.09
2019-05-11T06:44:00.684Z,101561.05
2019-05-11T06:46:55.553Z,101558.26
2019-05-11T06:50:05.033Z,101554.67
2019-05-11T06:53:13.564Z,101555.19
2019-05-11T06:56:22.120Z,101557.75
2019-05-11T06:59:30.752Z,101551.22
2019-05-11T07:02:39.327Z,101551.64
2019-05-11T07:05:57.956Z,101554.05
2019-05-11T07:09:08.349Z,101557.16
2019-05-11T07:12:17.094Z,101563.34
2019-05-11T07:15:25.782Z,101568.98
2019-05-11T07:18:34.462Z,101577.22
2019-05-11T07:21:43.221Z,101574.30
2019-05-11T07:24:51.761Z,101572.98
2019-05-11T07:28:00.531Z,101569.22
2019-05-11T07:31:09.130Z,101559.45
2019-05-11T07:34:18.527Z,101559.08
2019-05-11T07:37:27.957Z,101561.65
2019-05-11T07:40:38.459Z,101565.13
2019-05-11T07:43:48.480Z,101564.77
2019-05-11T07:46:58.701Z,101564.16
2019-05-11T07:50:09.039Z,101562.69
2019-05-11T07:53:18.593Z,101571.02
2019-05-11T07:56:28.508Z,101571.58
2019-05-11T07:59:48.688Z,101565.07
2019-05-11T08:02:58.547Z,101579.25
2019-05-11T08:06:18.328Z,101566.98
2019-05-11T08:09:27.933Z,101576.72
2019-05-11T08:12:38.984Z,101573.64
2019-05-11T08:15:48.869Z,101575.59
2019-05-11T08:18:58.985Z,101571.10
2019-05-11T08:22:08.653Z,101576.91
2019-05-11T08:25:18.354Z,101566.69
2019-05-11T08:28:28.796Z,101566.02
2019-05-11T08:31:38.445Z,101570.05
2019-05-11T08:34:49.052Z,101570.47
2019-05-11T08:37:58.220Z,101564.41
2019-05-11T08:41:18.432Z,101565.09
2019-05-11T08:44:28.728Z,101565.31
2019-05-11T08:47:37.919Z,101564.30
2019-05-11T08:50:48.663Z,101570.73
2019-05-11T08:53:58.430Z,101567.59
2019-05-11T08:57:08.134Z,101572.84
2019-05-11T09:00:29.380Z,101569.22
2019-05-11T09:03:38.704Z,101581.45
2019-05-11T09:06:48.064Z,101584.27
2019-05-11T09:09:58.619Z,101584.92
2019-05-11T09:13:08.164Z,101577.34
2019-05-11T09:16:18.878Z,101576.13
2019-05-11T09:19:28.431Z,101583.77
2019-05-11T09:22:38.120Z,101591.27
2019-05-11T09:25:47.670Z,101592.44
2019-05-11T09:29:08.582Z,101593.33
2019-05-11T09:32:17.942Z,101591.08
2019-05-11T09:35:29.034Z,101590.42
2019-05-11T09:38:38.357Z,101593.66
2019-05-11T09:41:48.821Z,101592.28
2019-05-11T09:44:57.810Z,101593.51
2019-05-11T09:48:08.641Z,101587.38
2019-05-11T09:51:18.448Z,101591.80
2019-05-11T09:54:28.897Z,101595.73
2019-05-11T09:57:38.155Z,101598.83
2019-05-11T10:00:47.903Z,101595.52
2019-05-11T10:03:58.478Z,101594.23
2019-05-11T10:07:08.994Z,101598.72
2019-05-11T10:10:18.679Z,101596.75
2019-05-11T10:13:38.596Z,101596.53
2019-05-11T10:16:58.464Z,101595.17
2019-05-11T10:20:09.252Z,101600.65
2019-05-11T10:23:18.702Z,101606.06
2019-05-11T10:26:38.442Z,101603.08
2019-05-11T10:29:48.122Z,101596.27
2019-05-11T10:32:57.755Z,101597.58
2019-05-11T10:36:07.914Z,101593.66
2019-05-11T10:39:27.960Z,101598.48
2019-05-11T10:42:37.938Z,101607.52
2019-05-11T10:45:48.335Z,101609.39
2019-05-11T10:49:00.806Z,101604.76
2019-05-11T10:52:10.388Z,101612.83
2019-05-11T10:55:19.684Z,101604.97
2019-05-11T10:58:28.730Z,101605.45
2019-05-11T11:01:38.181Z,101602.25
2019-05-11T11:05:04.770Z,101610.09
2019-05-11T11:08:13.426Z,101605.58
2019-05-11T11:11:22.061Z,101605.73
2019-05-11T11:14:31.708Z,101588.59
2019-05-11T11:17:38.742Z,101603.74
2019-05-11T11:31:24.346Z,101604.92
2019-05-11T11:34:33.107Z,101604.23
2019-05-11T11:37:41.731Z,101602.23
2019-05-11T11:40:51.425Z,101599.77
2019-05-11T11:44:02.654Z,101606.39
2019-05-11T11:47:12.704Z,101603.02
2019-05-11T11:50:30.749Z,101603.73
2019-05-11T11:53:39.725Z,101606.28
2019-05-11T11:56:50.856Z,101614.05
2019-05-11T12:00:00.224Z,101613.70
2019-05-11T12:03:12.886Z,101611.20
2019-05-11T12:06:20.685Z,101618.61
2019-05-11T12:09:39.496Z,101600.59
2019-05-11T12:12:50.227Z,101606.36
2019-05-11T12:16:09.531Z,101610.63
2019-05-11T12:19:18.728Z,101614.38
2019-05-11T12:22:52.341Z,101619.98
2019-05-11T12:26:02.687Z,101624.18
2019-05-11T12:29:18.800Z,101628.64
2019-05-11T12:32:41.793Z,101623.66
2019-05-11T12:36:18.781Z,101623.91
2019-05-11T12:39:28.183Z,101626.08
2019-05-11T12:42:37.947Z,101631.00
2019-05-11T12:45:58.742Z,101620.01
2019-05-11T12:49:07.856Z,101629.38
2019-05-11T12:52:18.446Z,101629.64
2019-05-11T12:55:28.629Z,101633.91
2019-05-11T12:58:49.136Z,101634.91
2019-05-11T13:02:08.480Z,101634.84
2019-05-11T13:05:18.025Z,101637.29
2019-05-11T13:08:27.754Z,101637.56
2019-05-11T13:11:48.240Z,101638.42
2019-05-11T13:14:58.019Z,101641.94
2019-05-11T13:18:08.408Z,101648.98
2019-05-11T13:21:18.315Z,101657.50
2019-05-11T13:24:48.739Z,101659.99
2019-05-11T13:27:58.111Z,101664.27
2019-05-11T13:31:08.207Z,101663.70
2019-05-11T13:34:42.299Z,101665.02
2019-05-11T13:37:50.885Z,101659.91
2019-05-11T13:40:59.532Z,101669.48
2019-05-11T13:44:08.195Z,101666.03
2019-05-11T13:47:18.005Z,101668.65
2019-05-11T13:50:26.698Z,101677.90
2019-05-11T14:04:38.721Z,101678.83
2019-05-11T14:08:05.286Z,101677.51
2019-05-11T14:11:13.901Z,101676.94
2019-05-11T14:14:22.558Z,101678.93
2019-05-11T14:17:31.852Z,101685.77
2019-05-11T14:20:50.877Z,101688.70
2019-05-11T14:23:59.690Z,101693.95
2019-05-11T14:27:08.576Z,101698.63
2019-05-11T14:30:19.055Z,101699.34
2019-05-11T14:33:28.317Z,101710.58
2019-05-11T14:36:38.732Z,101716.94
2019-05-11T14:39:58.392Z,101711.23
2019-05-11T14:43:08.383Z,101720.31
2019-05-11T14:46:18.107Z,101723.69
2019-05-11T14:49:27.613Z,101726.45
2019-05-11T14:52:38.849Z,101734.52
2019-05-11T14:55:48.828Z,101737.70
2019-05-11T14:58:58.029Z,101746.34
2019-05-11T15:02:24.646Z,101750.94
2019-05-11T15:05:33.231Z,101752.77
2019-05-11T15:08:41.838Z,101757.39
2019-05-11T15:11:52.627Z,101759.39
2019-05-11T15:15:00.790Z,101762.54
2019-05-11T15:18:09.504Z,101767.47
2019-05-11T15:21:18.844Z,101768.22
2019-05-11T15:24:28.865Z,101764.95
2019-05-11T15:27:37.902Z,101765.66
2019-05-11T15:30:48.282Z,101776.88
2019-05-11T15:33:57.722Z,101774.08
2019-05-11T15:37:17.782Z,101788.88
2019-05-11T15:40:27.857Z,101789.67
2019-05-11T15:43:38.559Z,101794.93
2019-05-11T15:46:48.024Z,101798.64
2019-05-11T15:49:57.902Z,101797.91
2019-05-11T15:53:08.609Z,101813.86
2019-05-11T15:56:18.803Z,101806.31
2019-05-11T15:59:27.917Z,101805.26
2019-05-11T16:02:37.821Z,101815.54
2019-05-11T16:05:47.959Z,101824.02
2019-05-11T16:08:58.617Z,101823.81
2019-05-11T16:12:06.955Z,101836.48
2019-05-11T16:15:27.610Z,101833.83
2019-05-11T16:18:36.008Z,101836.87
2019-05-11T16:21:44.565Z,101844.18
2019-05-11T16:24:53.152Z,101845.30
2019-05-11T16:28:01.674Z,101848.88
2019-05-11T16:31:10.341Z,101846.27
2019-05-11T16:34:18.952Z,101852.22
2019-05-11T16:37:38.105Z,101853.20
2019-05-11T16:40:58.408Z,101864.05
2019-05-11T16:44:07.880Z,101865.66
2019-05-11T16:47:18.156Z,101873.75
2019-05-11T16:50:38.413Z,101865.36
2019-05-11T16:53:48.296Z,101878.36
2019-05-11T16:56:57.915Z,101883.48
2019-05-11T17:00:08.819Z,101884.33
2019-05-11T17:03:28.074Z,101880.44
2019-05-11T17:06:48.641Z,101884.59
2019-05-11T17:10:08.822Z,101889.67
2019-05-11T17:13:18.032Z,101901.17
2019-05-11T17:16:28.465Z,101895.88
2019-05-11T17:19:45.357Z,101910.05
2019-05-11T17:22:47.958Z,101913.77
2019-05-11T17:26:08.723Z,101918.97
2019-05-11T17:29:18.602Z,101929.78
2019-05-11T17:32:29.369Z,101929.86
2019-05-11T17:35:37.594Z,101933.27
2019-05-11T17:38:47.909Z,101931.58
2019-05-11T17:41:58.267Z,101938.56
2019-05-11T17:45:08.087Z,101940.57
2019-05-11T17:48:17.820Z,101943.02
2019-05-11T17:51:28.569Z,101952.80
2019-05-11T17:54:38.313Z,101950.59
2019-05-11T17:57:49.611Z,101950.12
2019-05-11T18:00:58.829Z,101953.67
2019-05-11T18:04:25.315Z,101966.41
2019-05-11T18:07:33.976Z,101972.10
2019-05-11T18:10:42.656Z,101980.22
2019-05-11T18:13:51.256Z,101977.19
2019-05-11T18:16:59.777Z,101984.70
2019-05-11T18:20:16.818Z,101995.20
2019-05-11T18:23:18.712Z,102009.72
2019-05-11T18:26:38.190Z,102006.67
2019-05-11T18:29:48.557Z,102009.39
2019-05-11T18:32:59.421Z,102014.56
2019-05-11T18:36:08.115Z,102021.30
2019-05-11T18:39:18.606Z,102036.56
2019-05-11T18:42:27.118Z,102036.89
2019-05-11T18:45:38.037Z,102045.75
2019-05-11T18:48:48.502Z,102058.61
2019-05-11T18:51:58.534Z,102062.78
2019-05-11T18:55:08.563Z,102070.33
2019-05-11T18:58:18.545Z,102070.57
2019-05-11T19:01:38.128Z,102079.48
2019-05-11T19:04:48.772Z,102086.88
2019-05-11T19:08:07.365Z,102093.56
2019-05-11T19:11:18.080Z,102105.41
2019-05-11T19:14:28.166Z,102102.41
2019-05-11T19:17:38.597Z,102115.47
2019-05-11T19:20:49.420Z,102130.19
2019-05-11T19:23:58.150Z,102145.72
2019-05-11T19:27:18.565Z,102150.59
2019-05-11T19:30:27.692Z,102163.66
2019-05-11T19:33:38.203Z,102167.98
2019-05-11T19:36:58.014Z,102164.25
2019-05-11T19:40:09.626Z,102175.98
2019-05-11T19:43:28.488Z,102187.50
2019-05-11T19:46:38.819Z,102188.91
2019-05-11T19:49:47.973Z,102196.84
2019-05-11T19:53:08.409Z,102198.73
2019-05-11T19:56:18.252Z,102204.48
2019-05-11T19:59:27.980Z,102217.39
2019-05-11T20:02:47.191Z,102222.12
2019-05-11T20:05:58.057Z,102226.87
2019-05-11T20:09:08.718Z,102230.77
2019-05-11T20:12:18.089Z,102235.48
2019-05-11T20:15:26.830Z,102230.06
2019-05-11T20:18:35.527Z,102236.31
2019-05-11T20:21:44.140Z,102243.42
2019-05-11T20:24:52.786Z,102241.66
2019-05-11T20:28:01.410Z,102249.31
2019-05-11T20:31:10.281Z,102254.51
2019-05-11T20:34:19.010Z,102255.14
2019-05-11T20:37:28.732Z,102258.95
2019-05-11T20:40:37.872Z,102259.99
2019-05-11T20:43:58.061Z,102262.35
2019-05-11T20:47:06.688Z,102270.53
2019-05-11T20:50:18.165Z,102285.60
2019-05-11T20:53:28.443Z,102284.37
2019-05-11T20:56:38.640Z,102282.31
2019-05-11T20:59:45.147Z,102296.84
2019-05-11T21:02:53.805Z,102299.86
2019-05-11T21:06:02.441Z,102300.86
2019-05-11T21:09:11.114Z,102310.02
2019-05-11T21:12:19.733Z,102314.94
2019-05-11T21:15:38.704Z,102318.59
2019-05-11T21:18:47.487Z,102325.39
2019-05-11T21:21:58.753Z,102332.95
2019-05-11T21:25:09.061Z,102336.65
2019-05-11T21:28:30.380Z,102335.61
2019-05-11T21:31:40.590Z,102339.17
2019-05-11T21:34:48.896Z,102344.35
2019-05-11T21:37:58.130Z,102352.66
2019-05-11T21:41:08.768Z,102352.86
2019-05-11T21:44:18.879Z,102361.33
2019-05-11T21:47:28.967Z,102357.48
2019-05-11T21:50:37.890Z,102368.63
2019-05-11T21:53:48.510Z,102377.01
2019-05-11T21:57:08.300Z,102374.33
2019-05-11T22:00:18.866Z,102382.34
2019-05-11T22:03:28.161Z,102389.42
2019-05-11T22:06:39.021Z,102392.86
2019-05-11T22:09:47.506Z,102392.37
2019-05-11T22:12:56.128Z,102394.92
2019-05-11T22:16:14.905Z,102392.86
2019-05-11T22:19:23.567Z,102398.96
2019-05-11T22:22:32.091Z,102403.05
2019-05-11T22:25:40.794Z,102405.13
2019-05-11T22:28:49.479Z,102410.83
2019-05-11T22:31:58.243Z,102411.64
2019-05-11T22:35:07.052Z,102423.13
2019-05-11T22:38:15.744Z,102427.38
2019-05-11T22:41:24.384Z,102433.63
2019-05-11T22:44:35.803Z,102440.45
2019-05-11T22:47:43.461Z,102438.53
2019-05-11T22:51:02.204Z,102434.36
2019-05-11T22:54:11.180Z,102449.81
2019-05-11T22:57:30.423Z,102452.02
2019-05-11T23:00:44.609Z,102464.54
2019-05-11T23:04:03.232Z,102460.36
2019-05-11T23:07:11.835Z,102460.80
2019-05-11T23:10:20.449Z,102466.73
2019-05-11T23:13:30.391Z,102468.16
2019-05-11T23:16:39.204Z,102467.56
2019-05-11T23:19:48.702Z,102472.69
2019-05-11T23:23:01.328Z,102480.34
2019-05-11T23:26:08.594Z,102484.09
2019-05-11T23:29:17.555Z,102485.34
2019-05-11T23:32:25.822Z,102490.59
2019-05-11T23:35:44.917Z,102501.22
2019-05-11T23:38:53.711Z,102500.33
2019-05-11T23:42:02.334Z,102497.73
2019-05-11T23:45:12.048Z,102504.91
2019-05-11T23:48:20.760Z,102512.77
2019-05-11T23:51:29.432Z,102509.55
2019-05-11T23:54:48.554Z,102516.58
2019-05-11T23:58:08.164Z,102520.72
